Time;durP1;ratioP1;P1;durP2;ratioP2;P2;SDS_P1;SDS_P2;PMS_P1;PMS_P2;Temp;Humidity;BMP_temperature;BMP_pressure;BME280_temperature;BME280_humidity;BME280_pressure;Samples;Min_cycle;Max_cycle;Signal;HPM_P1;HPM_P2
2021/10/17 00:00:07;;;;;;;6.07;5.60;;;5.90;99.90;;;;;;5036327;28;20343;-65
2021/10/17 00:02:33;;;;;;;5.45;4.10;;;5.80;99.90;;;;;;5036531;28;20166;-65
2021/10/17 00:04:59;;;;;;;10.27;6.10;;;5.70;99.90;;;;;;5037002;28;20192;-65
2021/10/17 00:07:24;;;;;;;7.07;5.83;;;5.60;99.90;;;;;;5035911;28;20730;-65
2021/10/17 00:09:50;;;;;;;6.73;6.07;;;5.60;99.90;;;;;;5036229;28;20162;-65
2021/10/17 00:12:15;;;;;;;10.00;6.47;;;5.50;99.90;;;;;;5035994;28;20174;-64
2021/10/17 00:14:41;;;;;;;6.73;5.20;;;5.50;99.90;;;;;;5036386;28;20216;-64
2021/10/17 00:17:07;;;;;;;8.00;5.67;;;5.50;99.90;;;;;;5035712;28;20195;-65
2021/10/17 00:19:33;;;;;;;7.33;5.87;;;5.50;99.90;;;;;;5036143;28;20177;-64
2021/10/17 00:21:58;;;;;;;10.50;5.30;;;5.40;99.90;;;;;;5036246;28;20428;-65
2021/10/17 00:24:24;;;;;;;9.60;6.37;;;5.40;99.90;;;;;;5036133;28;20624;-65
2021/10/17 00:26:50;;;;;;;5.77;5.00;;;5.30;99.90;;;;;;5035607;28;20174;-65
2021/10/17 00:29:15;;;;;;;7.60;5.40;;;5.30;99.90;;;;;;5036009;28;20209;-64
2021/10/17 00:31:41;;;;;;;8.60;5.70;;;5.30;99.90;;;;;;5034589;28;20198;-64
2021/10/17 00:34:07;;;;;;;7.97;7.17;;;5.30;99.90;;;;;;5035757;28;20170;-65
2021/10/17 00:36:33;;;;;;;7.30;6.27;;;5.30;99.90;;;;;;5035508;28;20184;-64
2021/10/17 00:38:59;;;;;;;5.43;4.90;;;5.20;99.90;;;;;;5035643;28;20244;-64
2021/10/17 00:41:25;;;;;;;6.97;5.30;;;5.10;99.90;;;;;;5035848;28;20174;-65
2021/10/17 00:43:51;;;;;;;4.90;4.50;;;5.10;99.90;;;;;;5034816;28;20448;-65
2021/10/17 00:46:21;;;;;;;6.97;5.30;;;5.10;99.90;;;;;;5035465;28;20431;-66
2021/10/17 00:48:47;;;;;;;7.90;5.85;;;5.10;99.90;;;;;;5034752;28;20428;-65
2021/10/17 00:51:14;;;;;;;5.43;4.47;;;5.10;99.90;;;;;;5035476;28;20233;-65
2021/10/17 00:53:40;;;;;;;6.43;5.50;;;5.10;99.90;;;;;;5035886;28;20190;-65
2021/10/17 00:56:06;;;;;;;6.90;5.57;;;5.10;99.90;;;;;;5035513;28;20660;-64
2021/10/17 00:58:32;;;;;;;6.20;4.72;;;5.10;99.90;;;;;;5034967;28;20482;-64
2021/10/17 01:00:58;;;;;;;5.10;4.50;;;5.00;99.90;;;;;;5035485;28;20170;-65
2021/10/17 01:03:24;;;;;;;6.20;4.90;;;5.00;99.90;;;;;;5035025;28;20205;-65
2021/10/17 01:05:50;;;;;;;5.95;5.00;;;5.00;99.90;;;;;;5035353;28;20174;-64
2021/10/17 01:08:16;;;;;;;6.72;4.50;;;4.90;99.90;;;;;;5034858;28;20187;-65
2021/10/17 01:10:43;;;;;;;8.15;5.90;;;4.90;99.90;;;;;;5035191;28;20225;-65
2021/10/17 01:13:20;;;;;;;7.85;4.63;;;4.90;99.90;;;;;;5035273;28;20173;-64
2021/10/17 01:16:04;;;;;;;7.07;4.95;;;4.90;99.90;;;;;;5034959;28;20170;-65
2021/10/17 01:18:30;;;;;;;4.70;4.25;;;4.90;99.90;;;;;;5033984;28;20206;-65
2021/10/17 01:20:56;;;;;;;4.55;4.15;;;4.90;99.90;;;;;;5035155;28;20174;-65
2021/10/17 01:23:22;;;;;;;4.20;3.80;;;4.90;99.90;;;;;;5033769;28;20197;-65
2021/10/17 01:25:48;;;;;;;6.70;5.50;;;4.90;99.90;;;;;;5034940;28;20178;-65
2021/10/17 01:28:14;;;;;;;5.80;5.07;;;4.90;99.90;;;;;;5034355;28;20194;-65
2021/10/17 01:30:40;;;;;;;6.85;4.78;;;4.90;99.90;;;;;;5016560;28;20206;-65
2021/10/17 01:33:06;;;;;;;5.57;5.07;;;4.90;99.90;;;;;;5033509;28;20180;-66
2021/10/17 01:35:32;;;;;;;6.77;5.10;;;4.90;99.90;;;;;;5034727;28;20248;-65
2021/10/17 01:37:58;;;;;;;7.05;5.45;;;5.00;99.90;;;;;;5034182;28;20471;-65
2021/10/17 01:40:24;;;;;;;6.20;4.43;;;5.00;99.90;;;;;;5034393;28;20214;-65
2021/10/17 01:42:50;;;;;;;8.40;5.30;;;4.90;99.90;;;;;;5034373;28;20652;-64
2021/10/17 01:45:16;;;;;;;6.67;4.80;;;4.80;99.90;;;;;;5034439;28;20218;-65
2021/10/17 01:47:49;;;;;;;5.80;5.40;;;4.80;99.90;;;;;;5034021;28;20424;-65
2021/10/17 01:50:15;;;;;;;6.03;4.97;;;4.80;99.90;;;;;;5016403;28;20213;-65
2021/10/17 01:52:41;;;;;;;6.97;5.22;;;4.80;99.90;;;;;;5034088;28;20220;-64
2021/10/17 01:55:07;;;;;;;10.57;6.17;;;4.80;99.90;;;;;;5034109;28;20213;-65
2021/10/17 01:57:32;;;;;;;5.30;4.25;;;4.90;99.90;;;;;;5033838;28;20236;-65
2021/10/17 01:59:58;;;;;;;10.17;6.63;;;4.90;99.90;;;;;;5034018;28;20616;-65
2021/10/17 02:02:24;;;;;;;4.40;3.63;;;4.90;99.90;;;;;;5034189;28;20182;-65
2021/10/17 02:04:51;;;;;;;4.90;3.40;;;5.00;99.90;;;;;;5034089;28;20700;-64
2021/10/17 02:07:16;;;;;;;6.07;4.63;;;5.00;99.90;;;;;;5033356;28;20224;-64
2021/10/17 02:09:42;;;;;;;5.67;5.17;;;5.00;99.90;;;;;;5034152;28;20551;-65
2021/10/17 02:12:08;;;;;;;6.70;4.50;;;5.00;99.90;;;;;;5034068;28;20197;-64
2021/10/17 02:14:35;;;;;;;4.67;4.27;;;5.00;99.90;;;;;;5033881;28;20496;-65
2021/10/17 02:17:02;;;;;;;5.80;5.30;;;5.00;99.90;;;;;;5033673;28;20183;-65
2021/10/17 02:19:27;;;;;;;6.28;5.68;;;5.00;99.90;;;;;;5034052;28;20166;-65
2021/10/17 02:21:53;;;;;;;7.17;5.50;;;5.10;99.90;;;;;;5033973;28;20185;-64
2021/10/17 02:24:18;;;;;;;6.90;4.50;;;5.10;99.90;;;;;;5033954;28;20240;-65
2021/10/17 02:26:45;;;;;;;15.63;5.43;;;5.10;99.90;;;;;;5032121;28;20171;-65
2021/10/17 02:29:11;;;;;;;9.70;4.88;;;5.00;99.90;;;;;;5033527;28;20298;-65
2021/10/17 02:31:36;;;;;;;6.10;4.47;;;5.00;99.90;;;;;;5033626;28;20719;-65
2021/10/17 02:34:02;;;;;;;4.57;3.90;;;5.10;99.90;;;;;;5033787;28;20256;-64
2021/10/17 02:36:28;;;;;;;7.23;4.70;;;5.10;99.90;;;;;;5033192;28;20196;-65
2021/10/17 02:38:54;;;;;;;4.77;4.27;;;5.00;99.90;;;;;;5033450;28;20539;-65
2021/10/17 02:41:19;;;;;;;6.33;5.17;;;5.10;99.90;;;;;;5033534;28;20181;-64
2021/10/17 02:43:45;;;;;;;7.67;5.40;;;5.10;99.90;;;;;;5033711;28;20209;-64
2021/10/17 02:46:11;;;;;;;3.70;3.30;;;5.00;99.90;;;;;;5033632;28;20273;-65
2021/10/17 02:48:36;;;;;;;8.40;5.17;;;5.10;99.90;;;;;;5031353;28;20208;-65
2021/10/17 02:51:02;;;;;;;6.30;3.97;;;5.10;99.90;;;;;;5033076;28;20553;-65
2021/10/17 02:53:28;;;;;;;5.57;4.40;;;5.10;99.90;;;;;;5032223;28;20582;-65
2021/10/17 02:55:53;;;;;;;8.37;6.03;;;5.10;99.90;;;;;;5033264;28;20239;-64
2021/10/17 02:58:19;;;;;;;5.20;4.30;;;5.20;99.90;;;;;;5032945;28;20635;-65
2021/10/17 03:00:44;;;;;;;6.10;4.80;;;5.20;99.90;;;;;;5033286;28;20183;-65
2021/10/17 03:03:10;;;;;;;6.53;5.07;;;5.30;99.90;;;;;;5033153;28;20179;-65
2021/10/17 03:05:35;;;;;;;10.63;6.77;;;5.30;99.90;;;;;;5033062;28;20178;-65
2021/10/17 03:08:01;;;;;;;5.37;4.57;;;5.20;99.90;;;;;;5032438;28;20200;-64
2021/10/17 03:10:27;;;;;;;6.60;5.00;;;5.20;99.90;;;;;;5033027;28;20221;-65
2021/10/17 03:12:53;;;;;;;7.60;5.83;;;;;;;;;;5033222;28;20201;-64
2021/10/17 03:15:18;;;;;;;7.63;5.53;;;5.20;99.90;;;;;;5033046;28;20163;-65
2021/10/17 03:17:44;;;;;;;6.50;5.90;;;5.20;99.90;;;;;;5032480;28;20691;-66
2021/10/17 03:20:10;;;;;;;5.33;5.00;;;5.20;99.90;;;;;;5033369;28;20552;-65
2021/10/17 03:22:37;;;;;;;15.75;5.70;;;5.20;99.90;;;;;;5033132;28;20177;-65
2021/10/17 03:25:04;;;;;;;7.30;5.05;;;5.20;99.90;;;;;;5033076;28;20173;-65
2021/10/17 03:27:29;;;;;;;12.15;6.15;;;5.20;99.90;;;;;;5032986;28;20186;-66
2021/10/17 03:29:55;;;;;;;7.20;6.03;;;5.30;99.90;;;;;;5033005;28;20178;-65
2021/10/17 03:32:21;;;;;;;7.93;6.03;;;5.30;99.90;;;;;;5032893;28;20674;-65
2021/10/17 03:34:47;;;;;;;5.93;5.17;;;5.30;99.90;;;;;;5031678;28;20237;-65
2021/10/17 03:37:13;;;;;;;7.83;5.60;;;5.00;99.90;;;;;;5032447;28;20417;-65
2021/10/17 03:39:38;;;;;;;12.07;7.27;;;5.20;99.90;;;;;;5033201;28;20189;-65
2021/10/17 03:42:04;;;;;;;7.80;4.83;;;5.20;99.90;;;;;;5032845;28;20174;-64
2021/10/17 03:44:29;;;;;;;5.80;3.80;;;5.20;99.90;;;;;;5032750;28;20247;-66
2021/10/17 03:46:55;;;;;;;6.13;4.73;;;5.30;99.90;;;;;;5032279;28;20187;-65
2021/10/17 03:49:21;;;;;;;7.30;5.77;;;5.30;99.90;;;;;;5032551;28;20198;-64
2021/10/17 03:51:46;;;;;;;8.77;5.67;;;5.30;99.90;;;;;;5032790;28;20202;-65
2021/10/17 03:54:12;;;;;;;9.50;5.77;;;5.30;99.90;;;;;;5032990;28;20636;-65
2021/10/17 03:56:38;;;;;;;8.60;6.40;;;5.30;99.90;;;;;;5032837;28;20175;-65
2021/10/17 03:59:03;;;;;;;5.43;4.53;;;5.30;99.90;;;;;;5032764;28;20269;-65
2021/10/17 04:01:30;;;;;;;8.20;6.00;;;5.30;99.90;;;;;;5032451;28;20183;-65
2021/10/17 04:03:56;;;;;;;5.95;4.80;;;5.30;99.90;;;;;;5032894;28;20189;-65
2021/10/17 04:06:22;;;;;;;9.38;6.15;;;5.40;99.90;;;;;;5032757;28;20172;-66
2021/10/17 04:08:47;;;;;;;7.70;6.27;;;5.50;99.90;;;;;;5030983;28;20191;-65
2021/10/17 04:11:13;;;;;;;12.50;8.53;;;5.50;99.90;;;;;;5032669;28;20485;-64
2021/10/17 04:13:39;;;;;;;10.40;7.40;;;5.50;99.90;;;;;;5032741;28;20180;-66
2021/10/17 04:16:06;;;;;;;5.73;5.03;;;5.40;99.90;;;;;;5032483;28;20674;-65
2021/10/17 04:18:31;;;;;;;9.57;6.60;;;5.50;99.90;;;;;;5033263;28;20279;-64
2021/10/17 04:20:57;;;;;;;9.37;6.40;;;5.50;99.90;;;;;;5034812;28;20257;-66
2021/10/17 04:23:23;;;;;;;7.17;5.63;;;5.50;99.90;;;;;;5036867;28;20189;-64
2021/10/17 04:25:49;;;;;;;11.13;7.30;;;5.50;99.90;;;;;;5036177;28;20421;-63
2021/10/17 04:28:15;;;;;;;7.80;6.67;;;5.40;99.90;;;;;;5035527;28;20425;-64
2021/10/17 04:30:40;;;;;;;8.60;6.47;;;5.50;99.90;;;;;;5035167;28;20694;-65
2021/10/17 04:33:06;;;;;;;9.77;7.27;;;5.40;99.90;;;;;;5036047;28;20177;-65
2021/10/17 04:35:37;;;;;;;7.87;7.03;;;5.40;99.90;;;;;;5035935;28;20205;-66
2021/10/17 04:38:08;;;;;;;9.63;5.93;;;5.40;99.90;;;;;;5035442;28;20190;-65
2021/10/17 04:40:36;;;;;;;10.80;7.07;;;5.40;99.90;;;;;;5035979;28;20236;-65
2021/10/17 04:43:03;;;;;;;10.27;6.93;;;5.40;99.90;;;;;;5035712;28;20740;-66
2021/10/17 04:45:28;;;;;;;7.95;5.95;;;5.40;99.90;;;;;;5035413;28;20186;-66
2021/10/17 04:47:54;;;;;;;6.97;5.60;;;5.30;99.90;;;;;;5035089;28;20244;-65
2021/10/17 04:50:20;;;;;;;5.70;5.10;;;5.30;99.90;;;;;;5035430;28;20201;-66
2021/10/17 04:52:47;;;;;;;9.77;5.87;;;5.30;99.90;;;;;;5035448;28;20242;-65
2021/10/17 04:55:13;;;;;;;10.55;7.25;;;5.40;99.90;;;;;;5034040;28;20187;-66
2021/10/17 04:57:40;;;;;;;8.88;5.95;;;5.40;99.90;;;;;;5034840;28;20200;-66
2021/10/17 05:00:06;;;;;;;7.68;6.05;;;5.40;99.90;;;;;;5035171;28;20258;-64
2021/10/17 05:02:32;;;;;;;9.52;6.40;;;5.40;99.90;;;;;;5035457;28;20257;-64
2021/10/17 05:04:58;;;;;;;9.77;6.63;;;5.40;99.90;;;;;;5035240;28;20245;-66
2021/10/17 05:07:24;;;;;;;8.53;6.10;;;5.40;99.90;;;;;;5034979;28;20652;-65
2021/10/17 05:09:49;;;;;;;13.93;7.30;;;5.40;99.90;;;;;;5035499;28;20163;-65
2021/10/17 05:12:15;;;;;;;10.53;4.70;;;5.40;99.90;;;;;;5035097;28;20208;-66
2021/10/17 05:14:40;;;;;;;8.80;5.17;;;5.40;99.90;;;;;;5034973;28;20178;-66
2021/10/17 05:17:06;;;;;;;6.07;5.13;;;5.40;99.90;;;;;;5034711;28;20553;-65
2021/10/17 05:19:32;;;;;;;10.60;7.27;;;5.40;99.90;;;;;;5035220;28;20167;-66
2021/10/17 05:21:57;;;;;;;12.97;6.73;;;5.40;99.90;;;;;;5035058;28;20166;-64
2021/10/17 05:24:23;;;;;;;6.90;5.80;;;5.40;99.90;;;;;;5034702;28;20537;-65
2021/10/17 05:26:49;;;;;;;7.30;5.53;;;5.30;99.90;;;;;;5034423;28;20183;-65
2021/10/17 05:29:14;;;;;;;7.30;5.30;;;5.30;99.90;;;;;;5034374;28;20206;-66
2021/10/17 05:31:40;;;;;;;5.07;4.57;;;5.30;99.90;;;;;;5034157;28;20210;-65
2021/10/17 05:34:05;;;;;;;6.90;6.20;;;5.30;99.90;;;;;;5034884;28;20181;-65
2021/10/17 05:36:31;;;;;;;12.00;7.53;;;5.30;99.90;;;;;;5034586;28;20527;-66
2021/10/17 05:38:57;;;;;;;11.17;6.90;;;5.30;99.90;;;;;;5034195;28;20558;-65
2021/10/17 05:41:24;;;;;;;8.70;7.00;;;5.30;99.90;;;;;;5034779;28;20181;-66
2021/10/17 05:43:50;;;;;;;9.10;6.50;;;5.40;99.90;;;;;;5034549;28;20700;-64
2021/10/17 05:46:15;;;;;;;12.67;7.47;;;5.40;99.90;;;;;;5034095;28;20262;-64
2021/10/17 05:48:41;;;;;;;11.57;6.50;;;5.40;99.90;;;;;;5032360;28;20230;-66
2021/10/17 05:51:07;;;;;;;9.30;6.70;;;5.40;99.90;;;;;;5034297;28;20954;-65
2021/10/17 05:53:33;;;;;;;9.33;7.43;;;5.40;99.90;;;;;;5034517;28;20185;-66
2021/10/17 05:55:59;;;;;;;9.98;6.03;;;5.40;99.90;;;;;;5034243;28;20179;-66
2021/10/17 05:58:24;;;;;;;11.30;6.63;;;5.40;99.90;;;;;;5033822;28;20709;-65
2021/10/17 06:00:50;;;;;;;11.17;8.43;;;5.40;99.90;;;;;;5033880;28;20179;-65
2021/10/17 06:03:16;;;;;;;9.70;6.43;;;5.40;99.90;;;;;;5034115;28;20220;-65
2021/10/17 06:05:41;;;;;;;16.97;6.87;;;5.50;99.90;;;;;;5033809;28;20181;-63
2021/10/17 06:08:07;;;;;;;8.77;7.47;;;5.50;99.90;;;;;;5033672;28;20198;-64
2021/10/17 06:10:32;;;;;;;9.43;7.10;;;5.50;99.90;;;;;;5034088;28;20205;-65
2021/10/17 06:12:58;;;;;;;7.70;7.00;;;5.50;99.90;;;;;;5034150;28;20174;-65
2021/10/17 06:15:24;;;;;;;7.93;6.97;;;5.60;99.90;;;;;;5033914;28;20164;-66
2021/10/17 06:17:50;;;;;;;6.70;6.03;;;5.60;99.90;;;;;;5033457;28;20193;-64
2021/10/17 06:20:15;;;;;;;6.80;6.00;;;5.60;99.90;;;;;;5033641;28;20422;-64
2021/10/17 06:22:41;;;;;;;9.40;6.77;;;5.70;99.90;;;;;;5033742;28;20170;-64
2021/10/17 06:25:07;;;;;;;9.30;7.57;;;5.70;99.90;;;;;;5033801;28;20220;-65
2021/10/17 06:27:32;;;;;;;11.00;6.60;;;5.80;99.90;;;;;;5033209;28;20186;-65
2021/10/17 06:29:58;;;;;;;9.77;7.00;;;5.90;99.90;;;;;;5033849;28;20405;-66
2021/10/17 06:32:24;;;;;;;6.27;5.37;;;6.00;99.90;;;;;;5033738;28;20722;-66
2021/10/17 06:34:49;;;;;;;6.80;6.10;;;6.00;99.90;;;;;;5033410;28;20525;-65
2021/10/17 06:37:15;;;;;;;9.63;8.07;;;6.10;99.90;;;;;;5033286;28;20171;-65
2021/10/17 06:39:41;;;;;;;8.53;6.17;;;6.10;99.90;;;;;;5033626;28;20168;-65
2021/10/17 06:42:08;;;;;;;8.90;7.13;;;6.20;99.90;;;;;;5032852;28;20632;-65
2021/10/17 06:44:34;;;;;;;10.90;7.90;;;6.20;99.90;;;;;;5033386;28;20245;-64
2021/10/17 06:47:00;;;;;;;8.07;6.72;;;6.20;99.90;;;;;;5033119;28;20177;-65
2021/10/17 06:49:25;;;;;;;8.23;6.50;;;6.30;99.90;;;;;;5032965;28;20198;-65
2021/10/17 06:51:51;;;;;;;9.00;6.43;;;6.30;99.90;;;;;;5033246;28;20379;-64
2021/10/17 06:54:16;;;;;;;9.63;7.07;;;6.40;99.90;;;;;;5033304;28;20166;-65
2021/10/17 06:56:42;;;;;;;10.20;6.90;;;6.50;99.90;;;;;;5033048;28;20181;-64
2021/10/17 06:59:08;;;;;;;8.10;7.33;;;6.60;99.90;;;;;;5033053;28;20574;-64
2021/10/17 07:01:33;;;;;;;11.30;6.67;;;6.70;99.90;;;;;;5033506;28;20249;-66
2021/10/17 07:03:59;;;;;;;12.13;9.00;;;6.70;99.90;;;;;;5033204;28;20173;-64
2021/10/17 07:06:25;;;;;;;12.00;7.40;;;6.80;99.90;;;;;;5033366;28;20187;-64
2021/10/17 07:08:50;;;;;;;7.87;6.77;;;6.80;99.90;;;;;;5032902;28;20675;-64
2021/10/17 07:11:16;;;;;;;10.33;8.60;;;6.90;99.90;;;;;;5033305;28;20313;-65
2021/10/17 07:13:42;;;;;;;10.60;8.40;;;7.00;99.90;;;;;;5033276;28;20177;-65
2021/10/17 07:16:07;;;;;;;9.77;7.30;;;7.20;99.90;;;;;;5033097;28;20246;-66
2021/10/17 07:18:33;;;;;;;8.57;7.77;;;7.30;99.90;;;;;;5032719;28;20208;-65
2021/10/17 07:20:59;;;;;;;8.50;7.67;;;7.40;99.90;;;;;;5032849;28;20193;-65
2021/10/17 07:23:24;;;;;;;14.87;8.90;;;7.50;99.90;;;;;;5033108;28;20173;-64
2021/10/17 07:25:50;;;;;;;7.67;6.50;;;7.60;99.90;;;;;;5033026;28;20174;-65
2021/10/17 07:28:16;;;;;;;9.57;7.17;;;7.80;99.90;;;;;;5032564;28;20190;-64
2021/10/17 07:30:41;;;;;;;11.47;8.50;;;8.00;99.90;;;;;;5032841;28;20194;-65
2021/10/17 07:33:07;;;;;;;9.70;7.10;;;8.20;99.90;;;;;;5033136;28;20760;-65
2021/10/17 07:35:33;;;;;;;9.80;6.10;;;8.30;99.90;;;;;;5031487;28;20583;-67
2021/10/17 07:38:00;;;;;;;12.93;7.23;;;8.50;99.90;;;;;;5032533;28;20251;-66
2021/10/17 07:40:26;;;;;;;10.10;7.55;;;8.60;99.90;;;;;;5032929;28;20209;-66
2021/10/17 07:42:52;;;;;;;9.73;6.80;;;8.70;99.90;;;;;;5031683;28;20175;-66
2021/10/17 07:45:18;;;;;;;11.30;8.00;;;8.80;99.90;;;;;;5033043;28;20232;-67
2021/10/17 07:47:43;;;;;;;9.20;7.10;;;8.90;99.90;;;;;;5032681;28;20237;-67
2021/10/17 07:50:09;;;;;;;6.20;5.50;;;9.00;99.90;;;;;;5032067;28;20949;-65
2021/10/17 07:52:36;;;;;;;8.10;6.10;;;9.20;99.90;;;;;;5033936;28;20207;-66
2021/10/17 07:55:04;;;;;;;7.15;6.55;;;9.30;99.90;;;;;;5036458;28;20201;-65
2021/10/17 07:57:29;;;;;;;10.38;7.47;;;9.40;99.90;;;;;;5035898;28;20198;-65
2021/10/17 07:59:55;;;;;;;7.70;6.37;;;9.50;99.90;;;;;;5036129;28;20288;-67
2021/10/17 08:02:20;;;;;;;12.10;7.17;;;9.60;99.90;;;;;;5036185;28;20256;-65
2021/10/17 08:04:49;;;;;;;8.20;7.23;;;9.80;99.90;;;;;;5036476;28;20169;-66
2021/10/17 08:07:17;;;;;;;11.00;8.10;;;10.00;99.90;;;;;;5036063;28;20181;-67
2021/10/17 08:09:42;;;;;;;8.48;7.13;;;10.00;99.90;;;;;;5036172;28;20199;-66
2021/10/17 08:12:08;;;;;;;11.93;8.20;;;10.10;99.90;;;;;;5036256;28;20681;-67
2021/10/17 08:14:34;;;;;;;9.90;8.47;;;10.10;99.90;;;;;;5036710;28;20168;-66
2021/10/17 08:17:00;;;;;;;8.40;7.50;;;10.10;99.90;;;;;;5035746;28;20431;-66
2021/10/17 08:19:25;;;;;;;8.40;7.47;;;10.00;99.90;;;;;;5036070;28;20187;-65
2021/10/17 08:21:51;;;;;;;10.23;8.00;;;9.90;99.90;;;;;;5036244;28;20596;-66
2021/10/17 08:24:17;;;;;;;12.57;9.10;;;9.70;99.90;;;;;;5035754;28;20181;-67
2021/10/17 08:26:43;;;;;;;12.10;8.80;;;9.70;99.90;;;;;;5035711;28;20186;-65
2021/10/17 08:29:09;;;;;;;10.82;8.45;;;9.60;99.90;;;;;;5035936;28;20190;-67
2021/10/17 08:31:35;;;;;;;9.63;7.40;;;9.40;99.90;;;;;;5036458;28;20257;-65
2021/10/17 08:34:00;;;;;;;10.93;9.37;;;9.40;99.90;;;;;;5035789;28;20170;-65
2021/10/17 08:36:26;;;;;;;13.30;9.10;;;9.40;99.90;;;;;;5035900;28;20195;-66
2021/10/17 08:38:52;;;;;;;11.73;9.50;;;9.30;99.90;;;;;;5035006;28;20191;-65
2021/10/17 08:41:17;;;;;;;10.90;8.00;;;9.40;99.90;;;;;;5035690;28;20547;-66
2021/10/17 08:43:43;;;;;;;12.47;9.47;;;9.40;99.90;;;;;;5035579;28;20178;-66
2021/10/17 08:46:10;;;;;;;15.03;8.03;;;9.50;99.90;;;;;;5035665;28;20185;-66
2021/10/17 08:48:37;;;;;;;11.75;7.93;;;9.60;99.90;;;;;;5035192;28;20182;-67
2021/10/17 08:51:05;;;;;;;9.57;7.03;;;9.60;99.90;;;;;;5035591;28;20193;-66
2021/10/17 08:53:31;;;;;;;10.35;7.18;;;9.70;99.90;;;;;;5035238;28;20170;-65
2021/10/17 08:55:57;;;;;;;10.47;7.97;;;9.60;99.90;;;;;;5034979;28;20193;-66
2021/10/17 08:58:22;;;;;;;10.47;7.90;;;9.70;99.90;;;;;;5034963;28;20196;-65
2021/10/17 09:00:48;;;;;;;18.83;10.40;;;9.70;99.90;;;;;;5035380;28;20902;-67
2021/10/17 09:03:29;;;;;;;15.00;9.83;;;9.80;99.90;;;;;;5035408;28;20183;-67
2021/10/17 09:05:54;;;;;;;11.73;8.70;;;9.80;99.90;;;;;;5035018;28;20193;-66
2021/10/17 09:08:26;;;;;;;13.10;8.67;;;9.80;99.90;;;;;;5034538;28;20206;-68
2021/10/17 09:10:52;;;;;;;9.80;8.27;;;9.90;99.90;;;;;;5034920;28;20623;-66
2021/10/17 09:13:19;;;;;;;10.13;8.33;;;10.00;99.90;;;;;;5035273;28;20253;-65
2021/10/17 09:15:45;;;;;;;13.77;8.50;;;10.20;99.90;;;;;;5035216;28;20437;-66
2021/10/17 09:18:12;;;;;;;13.20;9.70;;;10.20;99.90;;;;;;5034564;28;20430;-65
2021/10/17 09:20:47;;;;;;;9.85;8.48;;;10.10;99.90;;;;;;5035128;28;20233;-68
2021/10/17 09:23:37;;;;;;;13.68;8.70;;;10.10;99.90;;;;;;5034617;28;20213;-67
2021/10/17 09:26:14;;;;;;;11.75;8.07;;;10.10;99.90;;;;;;5035146;28;20179;-66
2021/10/17 09:28:40;;;;;;;11.97;8.57;;;10.20;99.90;;;;;;5034634;28;20583;-67
2021/10/17 09:31:07;;;;;;;14.48;9.35;;;10.20;99.90;;;;;;5034678;28;20787;-66
2021/10/17 09:33:35;;;;;;;12.30;8.65;;;10.30;99.90;;;;;;5034666;28;20750;-67
2021/10/17 09:36:19;;;;;;;12.20;9.17;;;10.40;99.90;;;;;;5035376;28;20648;-65
2021/10/17 09:38:46;;;;;;;12.38;9.02;;;10.40;99.90;;;;;;5034336;28;20401;-66
2021/10/17 09:41:35;;;;;;;10.83;8.07;;;10.30;99.90;;;;;;5034963;28;20186;-69
2021/10/17 09:44:03;;;;;;;11.05;8.43;;;10.10;99.90;;;;;;5037437;28;20488;-66
2021/10/17 09:46:29;;;;;;;13.73;9.83;;;10.10;99.90;;;;;;5040469;28;20178;-65
2021/10/17 09:48:55;;;;;;;12.70;8.83;;;10.10;99.90;;;;;;5039851;28;20475;-66
2021/10/17 09:51:26;;;;;;;12.63;8.07;;;10.20;99.90;;;;;;5038939;28;20549;-65
2021/10/17 09:53:54;;;;;;;16.45;8.55;;;10.30;99.90;;;;;;5039692;28;20422;-66
2021/10/17 09:56:38;;;;;;;15.53;9.50;;;10.20;99.90;;;;;;5040612;28;20195;-67
2021/10/17 09:59:06;;;;;;;12.02;9.00;;;10.20;99.90;;;;;;5040726;28;20420;-66
2021/10/17 10:01:34;;;;;;;14.43;9.13;;;10.20;99.90;;;;;;5039778;28;20529;-65
2021/10/17 10:04:02;;;;;;;13.48;9.88;;;10.10;99.90;;;;;;5039384;28;20265;-67
2021/10/17 10:06:28;;;;;;;11.95;8.20;;;10.10;99.90;;;;;;5038097;28;20210;-65
2021/10/17 10:09:00;;;;;;;15.18;9.27;;;10.20;99.90;;;;;;5037961;28;20728;-66
2021/10/17 10:11:27;;;;;;;12.37;8.60;;;10.40;99.90;;;;;;5038738;28;20699;-65
2021/10/17 10:13:57;;;;;;;14.57;9.13;;;10.50;99.90;;;;;;5036335;28;20549;-67
2021/10/17 10:16:24;;;;;;;11.47;8.53;;;10.70;99.90;;;;;;5033887;28;20401;-66
2021/10/17 10:18:58;;;;;;;16.67;10.90;;;10.90;99.90;;;;;;5033572;28;20404;-67
2021/10/17 10:21:24;;;;;;;13.43;9.43;;;11.00;99.90;;;;;;5034101;28;20411;-65
2021/10/17 10:23:53;;;;;;;11.23;8.57;;;11.10;99.90;;;;;;5033727;28;20389;-67
2021/10/17 10:26:24;;;;;;;17.23;10.40;;;11.20;99.90;;;;;;5033699;28;20420;-66
2021/10/17 10:28:51;;;;;;;12.50;9.33;;;11.30;99.90;;;;;;5033419;28;20493;-66
2021/10/17 10:31:52;;;;;;;12.50;10.10;;;11.40;99.90;;;;;;5033693;28;20446;-67
2021/10/17 10:34:23;;;;;;;10.87;8.33;;;11.30;99.90;;;;;;5032750;28;20390;-66
2021/10/17 10:36:51;;;;;;;11.97;7.70;;;11.40;99.90;;;;;;5033198;28;20414;-66
2021/10/17 10:39:21;;;;;;;11.90;9.13;;;11.50;99.90;;;;;;5033550;28;20391;-66
2021/10/17 10:41:50;;;;;;;11.17;8.07;;;11.50;99.90;;;;;;5033507;28;20402;-66
2021/10/17 10:44:19;;;;;;;14.30;9.53;;;11.60;99.90;;;;;;5033447;28;20395;-66
2021/10/17 10:46:45;;;;;;;9.90;8.03;;;11.60;99.90;;;;;;5033160;28;20470;-66
2021/10/17 10:49:11;;;;;;;10.57;9.10;;;11.70;99.90;;;;;;5033224;28;20433;-65
2021/10/17 10:51:41;;;;;;;12.63;9.47;;;11.50;99.90;;;;;;5033452;28;20519;-66
2021/10/17 10:54:27;;;;;;;12.10;9.20;;;11.50;99.90;;;;;;5031836;28;20808;-67
2021/10/17 10:56:57;;;;;;;11.07;7.50;;;11.60;99.90;;;;;;5032016;28;20486;-66
2021/10/17 10:59:25;;;;;;;11.47;9.70;;;11.70;99.90;;;;;;5033343;28;20486;-67
2021/10/17 11:02:14;;;;;;;11.37;10.27;;;11.80;99.90;;;;;;5033201;28;20450;-66
2021/10/17 11:04:44;;;;;;;10.20;8.00;;;11.80;99.90;;;;;;5033426;28;20439;-66
2021/10/17 11:07:17;;;;;;;12.40;9.17;;;11.90;99.90;;;;;;5032683;28;20387;-66
2021/10/17 11:09:42;;;;;;;14.30;9.23;;;11.90;99.90;;;;;;5032840;28;20419;-66
2021/10/17 11:12:09;;;;;;;12.43;9.97;;;11.90;99.90;;;;;;5033144;28;20430;-66
2021/10/17 11:14:35;;;;;;;10.30;8.70;;;11.80;99.90;;;;;;5033379;28;20581;-67
2021/10/17 11:17:05;;;;;;;12.33;8.83;;;11.90;99.90;;;;;;5032837;28;20440;-66
2021/10/17 11:19:31;;;;;;;11.00;8.83;;;11.90;99.90;;;;;;5033223;28;20805;-67
2021/10/17 11:22:04;;;;;;;11.40;8.40;;;11.90;99.90;;;;;;5031700;28;20391;-66
2021/10/17 11:24:31;;;;;;;12.67;9.00;;;11.90;99.90;;;;;;5032877;28;20691;-66
2021/10/17 11:27:13;;;;;;;9.53;7.93;;;11.80;99.90;;;;;;5032826;28;20904;-67
2021/10/17 11:29:44;;;;;;;10.87;8.60;;;11.80;99.90;;;;;;5037172;28;20890;-66
2021/10/17 11:32:16;;;;;;;10.90;8.50;;;11.80;99.90;;;;;;5036777;28;20521;-66
2021/10/17 11:34:53;;;;;;;13.30;8.67;;;11.80;99.90;;;;;;5037022;28;20365;-66
2021/10/17 11:37:21;;;;;;;10.20;8.93;;;11.80;99.90;;;;;;5036770;28;20406;-66
2021/10/17 11:40:09;;;;;;;9.60;8.60;;;11.90;99.90;;;;;;5036450;28;20463;-66
2021/10/17 11:42:46;;;;;;;10.90;8.87;;;12.10;99.90;;;;;;5036945;28;20392;-66
2021/10/17 11:45:23;;;;;;;10.00;7.40;;;12.30;99.90;;;;;;5036779;28;20388;-66
2021/10/17 11:47:50;;;;;;;10.47;8.10;;;12.50;99.90;;;;;;5035020;28;20446;-66
2021/10/17 11:50:43;;;;;;;8.30;7.50;;;12.70;99.90;;;;;;5036720;28;20444;-66
2021/10/17 11:53:11;;;;;;;7.97;6.93;;;12.80;99.90;;;;;;5035059;28;20953;-65
2021/10/17 11:55:44;;;;;;;8.57;7.67;;;12.90;99.90;;;;;;5036555;28;20490;-66
2021/10/17 11:58:21;;;;;;;11.97;7.57;;;12.90;99.90;;;;;;5036265;28;20455;-66
2021/10/17 12:00:52;;;;;;;7.80;7.10;;;12.80;99.90;;;;;;5036574;28;20440;-66
2021/10/17 12:03:19;;;;;;;8.80;6.63;;;12.80;99.90;;;;;;5036580;28;20386;-66
2021/10/17 12:05:45;;;;;;;10.10;5.60;;;12.70;99.90;;;;;;5035996;28;21000;-65
2021/10/17 12:08:20;;;;;;;11.73;7.40;;;12.70;99.90;;;;;;5035915;28;20406;-65
2021/10/17 12:10:55;;;;;;;7.93;6.43;;;12.60;99.90;;;;;;5036346;28;20467;-65
2021/10/17 12:13:21;;;;;;;10.37;7.63;;;12.70;99.90;;;;;;5036190;28;20410;-67
2021/10/17 12:15:47;;;;;;;9.97;7.40;;;12.60;99.90;;;;;;5036312;28;20812;-65
2021/10/17 12:18:13;;;;;;;7.60;5.60;;;12.60;99.90;;;;;;5035681;28;20427;-67
2021/10/17 12:20:39;;;;;;;11.50;6.90;;;12.60;99.90;;;;;;5035742;28;20230;-66
2021/10/17 12:23:05;;;;;;;8.80;6.07;;;12.50;99.90;;;;;;5036043;28;20307;-67
2021/10/17 12:25:30;;;;;;;8.50;7.40;;;12.30;99.90;;;;;;5034827;28;20856;-66
2021/10/17 12:27:56;;;;;;;11.80;8.23;;;12.20;99.90;;;;;;5035655;28;20197;-65
2021/10/17 12:30:32;;;;;;;10.90;7.50;;;11.90;99.90;;;;;;5035821;28;20164;-67
2021/10/17 12:32:59;;;;;;;12.03;9.07;;;11.90;99.90;;;;;;5036017;28;20166;-64
2021/10/17 12:35:36;;;;;;;8.17;6.47;;;12.00;99.90;;;;;;5035852;28;20776;-67
2021/10/17 12:38:09;;;;;;;12.30;8.57;;;12.10;99.90;;;;;;5035152;28;20403;-67
2021/10/17 12:40:56;;;;;;;9.23;6.67;;;12.00;99.90;;;;;;5035057;28;20389;-67
2021/10/17 12:43:29;;;;;;;9.30;7.23;;;11.90;99.90;;;;;;5036253;28;20736;-67
2021/10/17 12:45:55;;;;;;;8.70;7.43;;;11.90;99.90;;;;;;5035958;28;20423;-67
2021/10/17 12:48:39;;;;;;;9.50;7.80;;;11.80;99.90;;;;;;5033844;28;21030;-68
2021/10/17 12:51:24;;;;;;;10.50;6.53;;;11.90;99.90;;;;;;5035100;28;20457;-67